Time;durP1;ratioP1;P1;durP2;ratioP2;P2;SDS_P1;SDS_P2;PMS_P1;PMS_P2;Temp;Humidity;BMP_temperature;BMP_pressure;BME280_temperature;BME280_humidity;BME280_pressure;Samples;Min_cycle;Max_cycle;Signal;HPM_P1;HPM_P2
2021/08/02 00:02:33;;;;;;;6.05;3.28;;;16.20;88.50;;;;;;5107227;28;20032;-81
2021/08/02 00:05:06;;;;;;;5.45;3.15;;;16.10;88.60;;;;;;5112800;28;20034;-81
2021/08/02 00:07:34;;;;;;;6.28;3.65;;;16.00;88.80;;;;;;5095745;28;20024;-82
2021/08/02 00:10:10;;;;;;;7.30;3.60;;;15.90;89.00;;;;;;5091890;28;20073;-81
2021/08/02 00:13:00;;;;;;;6.25;3.55;;;15.90;89.30;;;;;;5093062;28;20024;-81
2021/08/02 00:15:26;;;;;;;5.75;3.55;;;15.90;89.30;;;;;;5091844;28;20020;-81
2021/08/02 00:17:52;;;;;;;7.53;3.70;;;15.90;89.30;;;;;;5090851;28;20067;-82
2021/08/02 00:20:32;;;;;;;8.27;3.55;;;16.00;89.40;;;;;;5095113;28;20027;-81
2021/08/02 00:23:00;;;;;;;5.90;3.33;;;16.00;89.20;;;;;;5111949;28;20050;-81
2021/08/02 00:25:27;;;;;;;5.88;3.15;;;16.10;89.10;;;;;;5111868;28;20066;-81
2021/08/02 00:27:53;;;;;;;4.63;3.05;;;16.10;88.90;;;;;;5110554;28;20027;-82
2021/08/02 00:30:20;;;;;;;5.00;3.00;;;16.10;88.70;;;;;;5113577;28;20020;-81
2021/08/02 00:32:45;;;;;;;7.78;3.05;;;16.10;88.60;;;;;;5112032;28;20035;-81
2021/08/02 00:35:11;;;;;;;5.88;3.70;;;16.10;88.60;;;;;;5108211;28;20381;-81
2021/08/02 00:38:06;;;;;;;7.15;3.95;;;16.20;88.60;;;;;;5106383;27;20028;-81
2021/08/02 00:40:41;;;;;;;6.05;3.50;;;16.20;88.50;;;;;;5104322;28;20042;-84
2021/08/02 00:43:28;;;;;;;9.07;3.80;;;16.20;88.40;;;;;;5114274;28;20080;-82
2021/08/02 00:45:55;;;;;;;6.22;3.50;;;16.20;88.30;;;;;;5114028;28;20068;-82
2021/08/02 00:48:31;;;;;;;6.72;3.55;;;16.20;88.20;;;;;;5096845;28;20028;-82
2021/08/02 00:51:01;;;;;;;6.57;3.47;;;16.20;88.20;;;;;;5115090;28;20061;-81
2021/08/02 00:53:28;;;;;;;7.75;3.65;;;16.10;88.10;;;;;;5115172;28;20034;-80
2021/08/02 00:56:03;;;;;;;4.55;3.20;;;16.10;88.00;;;;;;5081034;28;20455;-82
2021/08/02 00:58:32;;;;;;;4.60;3.45;;;16.10;88.00;;;;;;5115142;27;20023;-82
2021/08/02 01:00:58;;;;;;;6.03;3.65;;;16.10;88.00;;;;;;5111296;28;20036;-82
2021/08/02 01:03:25;;;;;;;8.63;4.20;;;16.10;88.00;;;;;;5114310;28;20027;-82
2021/08/02 01:05:54;;;;;;;6.78;3.95;;;16.10;88.00;;;;;;5113265;28;20027;-82
2021/08/02 01:08:27;;;;;;;6.80;3.80;;;16.00;88.10;;;;;;5110820;28;20030;-81
2021/08/02 01:10:56;;;;;;;5.22;3.70;;;16.00;88.20;;;;;;5108174;28;20027;-82
2021/08/02 01:13:24;;;;;;;8.45;4.20;;;16.00;88.20;;;;;;5113904;28;20034;-82
2021/08/02 01:15:54;;;;;;;6.63;3.78;;;16.00;88.10;;;;;;5113458;28;20035;-81
2021/08/02 01:18:21;;;;;;;5.57;3.53;;;16.00;87.90;;;;;;5115550;28;20072;-81
2021/08/02 01:20:49;;;;;;;7.38;3.53;;;16.10;87.80;;;;;;5110552;28;20036;-80
2021/08/02 01:23:16;;;;;;;5.63;3.60;;;16.10;87.70;;;;;;5094422;28;20036;-79
2021/08/02 01:25:41;;;;;;;7.47;3.47;;;16.10;87.70;;;;;;5107622;28;20059;-80
2021/08/02 01:28:30;;;;;;;6.30;3.53;;;16.10;87.70;;;;;;5094353;28;20063;-80
2021/08/02 01:30:57;;;;;;;5.22;2.90;;;16.10;87.60;;;;;;5114456;28;20043;-79
2021/08/02 01:33:31;;;;;;;7.45;3.17;;;16.00;87.60;;;;;;5114930;28;20019;-79
2021/08/02 01:35:58;;;;;;;6.88;3.65;;;16.00;87.40;;;;;;5115378;28;20019;-80
2021/08/02 01:38:26;;;;;;;6.05;3.63;;;16.00;87.50;;;;;;5115946;28;20114;-82
2021/08/02 01:40:52;;;;;;;5.47;3.80;;;16.00;87.60;;;;;;5114427;28;20063;-79
2021/08/02 01:43:18;;;;;;;8.13;3.95;;;16.00;87.70;;;;;;5113575;28;20050;-80
2021/08/02 01:45:53;;;;;;;7.32;3.70;;;16.00;87.60;;;;;;5131559;27;20078;-81
2021/08/02 01:48:28;;;;;;;7.03;3.72;;;16.00;87.60;;;;;;5114883;28;20439;-79
2021/08/02 01:51:24;;;;;;;7.93;3.40;;;15.90;87.70;;;;;;5114716;28;20076;-80
2021/08/02 01:53:53;;;;;;;7.82;3.67;;;15.80;87.70;;;;;;5110966;28;20036;-80
2021/08/02 01:56:33;;;;;;;15.10;4.18;;;15.70;88.00;;;;;;5112366;28;20023;-80
2021/08/02 01:59:02;;;;;;;8.13;3.85;;;15.60;88.30;;;;;;5113436;28;20019;-80
2021/08/02 02:01:28;;;;;;;7.80;4.03;;;15.60;88.60;;;;;;5115304;28;20028;-80
2021/08/02 02:03:57;;;;;;;6.65;4.00;;;15.50;88.70;;;;;;5113195;28;20114;-80
2021/08/02 02:06:29;;;;;;;5.65;3.88;;;15.50;89.00;;;;;;5115073;28;20114;-79
2021/08/02 02:09:01;;;;;;;8.23;4.10;;;15.50;89.10;;;;;;5114763;28;20084;-79
2021/08/02 02:11:28;;;;;;;7.43;3.92;;;15.50;89.00;;;;;;5094995;28;20464;-78
2021/08/02 02:13:58;;;;;;;6.05;3.85;;;15.60;89.00;;;;;;5092958;28;20038;-81
2021/08/02 02:16:25;;;;;;;7.10;4.20;;;15.60;89.00;;;;;;5112258;28;20076;-81
2021/08/02 02:18:54;;;;;;;8.20;4.30;;;15.60;89.00;;;;;;5103559;28;20103;-80
2021/08/02 02:21:25;;;;;;;4.78;3.92;;;15.60;89.00;;;;;;5121209;28;20043;-80
2021/08/02 02:23:53;;;;;;;8.48;3.58;;;15.60;88.80;;;;;;5114539;28;20161;-80
2021/08/02 02:26:21;;;;;;;8.40;4.38;;;15.60;88.70;;;;;;5113938;28;20081;-80
2021/08/02 02:28:47;;;;;;;6.50;3.90;;;15.60;88.70;;;;;;5113503;28;20034;-82
2021/08/02 02:31:14;;;;;;;11.32;4.28;;;15.60;88.70;;;;;;5115733;28;20053;-80
2021/08/02 02:33:40;;;;;;;7.70;4.40;;;15.60;88.70;;;;;;5110183;28;20035;-80
2021/08/02 02:36:06;;;;;;;8.88;4.40;;;15.60;88.90;;;;;;5108343;28;20055;-81
2021/08/02 02:38:34;;;;;;;5.80;4.47;;;15.60;89.00;;;;;;5089820;28;20032;-80
2021/08/02 02:41:01;;;;;;;6.97;4.10;;;15.60;89.00;;;;;;5094024;28;20088;-80
2021/08/02 02:43:28;;;;;;;9.80;4.60;;;15.60;88.90;;;;;;5108721;28;20475;-80
2021/08/02 02:45:54;;;;;;;10.85;4.40;;;15.70;88.80;;;;;;5095133;28;20051;-82
2021/08/02 02:48:20;;;;;;;8.57;3.95;;;15.70;88.80;;;;;;5095111;28;20031;-80
2021/08/02 02:50:49;;;;;;;10.18;4.32;;;15.70;88.80;;;;;;5114902;28;20363;-82
2021/08/02 02:53:17;;;;;;;5.93;3.92;;;15.70;88.60;;;;;;5104350;28;20033;-80
2021/08/02 02:55:45;;;;;;;8.48;4.05;;;15.70;88.60;;;;;;5112768;28;20083;-80
2021/08/02 02:58:11;;;;;;;6.68;3.83;;;15.70;88.50;;;;;;5112611;28;20036;-81
2021/08/02 03:00:38;;;;;;;7.70;3.58;;;15.70;88.40;;;;;;5113473;28;20027;-80
2021/08/02 03:03:08;;;;;;;6.32;3.55;;;15.70;88.30;;;;;;5110422;28;20084;-80
2021/08/02 03:05:37;;;;;;;7.65;3.97;;;15.70;88.20;;;;;;5112726;28;20467;-81
2021/08/02 03:08:06;;;;;;;10.07;4.47;;;15.70;88.20;;;;;;5112705;28;20020;-81
2021/08/02 03:10:33;;;;;;;6.43;3.67;;;15.70;88.20;;;;;;5113950;28;20027;-82
2021/08/02 03:12:59;;;;;;;7.75;3.67;;;15.80;88.20;;;;;;5082535;28;20115;-82
2021/08/02 03:15:26;;;;;;;8.35;4.00;;;15.80;88.10;;;;;;5098090;28;20023;-81
2021/08/02 03:17:52;;;;;;;12.32;4.75;;;15.70;88.00;;;;;;5109382;28;20036;-85
2021/08/02 03:20:18;;;;;;;6.50;3.55;;;15.70;88.00;;;;;;5112508;28;20066;-80
2021/08/02 03:22:52;;;;;;;8.70;3.97;;;15.70;87.90;;;;;;5100524;28;20471;-81
2021/08/02 03:25:24;;;;;;;8.95;4.20;;;15.70;88.00;;;;;;5093269;28;20033;-79
2021/08/02 03:28:01;;;;;;;8.35;4.18;;;15.70;87.90;;;;;;5109207;28;20455;-80
2021/08/02 03:30:29;;;;;;;10.02;3.88;;;15.70;87.90;;;;;;5121106;28;20026;-80
2021/08/02 03:32:56;;;;;;;8.52;4.10;;;15.60;87.90;;;;;;5106728;28;20471;-84
2021/08/02 03:35:23;;;;;;;12.95;4.47;;;15.60;87.90;;;;;;5112451;28;20024;-79
2021/08/02 03:37:50;;;;;;;6.88;3.85;;;15.50;87.90;;;;;;5104711;28;20395;-80
2021/08/02 03:40:18;;;;;;;6.88;4.20;;;15.50;87.90;;;;;;5075031;28;20509;-81
2021/08/02 03:42:44;;;;;;;9.68;4.30;;;15.50;88.00;;;;;;5101976;28;20051;-81
2021/08/02 03:45:13;;;;;;;8.18;4.53;;;15.50;88.10;;;;;;5095189;28;20088;-81
2021/08/02 03:47:40;;;;;;;9.82;5.35;;;15.50;88.00;;;;;;5112202;28;20397;-81
2021/08/02 03:50:06;;;;;;;8.98;4.90;;;15.50;88.10;;;;;;5112316;28;20404;-81
2021/08/02 03:52:32;;;;;;;9.45;5.72;;;15.50;88.10;;;;;;5112103;28;20032;-81
2021/08/02 03:54:58;;;;;;;9.25;5.90;;;15.50;88.00;;;;;;5083331;28;20976;-83
2021/08/02 03:57:27;;;;;;;8.43;6.05;;;15.50;88.10;;;;;;5109721;28;20042;-81
2021/08/02 03:59:53;;;;;;;11.07;6.40;;;15.50;88.10;;;;;;5107588;28;20024;-81
2021/08/02 04:02:19;;;;;;;9.90;6.32;;;15.50;88.10;;;;;;5115442;28;20030;-80
2021/08/02 04:04:44;;;;;;;10.38;6.28;;;15.60;88.10;;;;;;5116792;28;20035;-80
2021/08/02 04:07:10;;;;;;;10.95;7.30;;;15.60;88.10;;;;;;5116496;28;20088;-81
2021/08/02 04:09:36;;;;;;;14.32;7.70;;;15.60;88.10;;;;;;5099095;28;20459;-80
2021/08/02 04:12:02;;;;;;;14.20;8.05;;;15.60;88.10;;;;;;5113081;27;20038;-81
2021/08/02 04:14:28;;;;;;;12.98;8.25;;;15.70;88.10;;;;;;5100652;28;20027;-81
2021/08/02 04:16:53;;;;;;;12.93;8.13;;;15.70;88.10;;;;;;5094764;28;20077;-81
2021/08/02 04:19:19;;;;;;;17.40;7.93;;;15.70;87.90;;;;;;5107812;28;20020;-81
2021/08/02 04:21:45;;;;;;;10.75;8.00;;;15.60;87.90;;;;;;5115838;28;20067;-81
2021/08/02 04:24:10;;;;;;;11.98;8.18;;;15.60;88.10;;;;;;5115638;28;20154;-82
2021/08/02 04:26:36;;;;;;;12.43;8.50;;;15.60;88.70;;;;;;5096365;28;20430;-82
2021/08/02 04:29:02;;;;;;;15.38;8.50;;;15.60;88.30;;;;;;5114096;28;20433;-83
2021/08/02 04:31:30;;;;;;;15.25;8.48;;;15.60;88.30;;;;;;5116249;28;20110;-81
2021/08/02 04:33:56;;;;;;;12.48;9.02;;;15.60;88.10;;;;;;5106637;28;20021;-81
2021/08/02 04:36:23;;;;;;;10.85;9.07;;;15.70;88.10;;;;;;5094916;28;20047;-82
2021/08/02 04:38:49;;;;;;;14.90;9.05;;;15.70;88.20;;;;;;5095531;28;20387;-81
2021/08/02 04:41:15;;;;;;;13.23;8.82;;;15.70;88.20;;;;;;5094807;28;20055;-82
2021/08/02 04:43:41;;;;;;;11.85;9.60;;;15.70;88.10;;;;;;5061696;28;20082;-82
2021/08/02 04:46:06;;;;;;;18.63;9.77;;;15.80;88.20;;;;;;5095091;28;20082;-83
2021/08/02 04:48:32;;;;;;;14.68;8.95;;;15.80;88.10;;;;;;5078867;28;20032;-82
2021/08/02 04:50:58;;;;;;;13.73;9.23;;;15.80;87.90;;;;;;5116686;28;20137;-82
2021/08/02 04:53:24;;;;;;;11.75;8.20;;;15.90;88.30;;;;;;5132003;27;20459;-81
2021/08/02 04:55:49;;;;;;;11.63;8.13;;;15.90;87.70;;;;;;5100267;28;20046;-81
2021/08/02 04:58:15;;;;;;;17.05;8.50;;;15.90;87.60;;;;;;5132987;27;20024;-82
2021/08/02 05:00:40;;;;;;;13.68;8.98;;;16.00;87.50;;;;;;5095790;28;20032;-81
2021/08/02 05:03:06;;;;;;;11.57;8.23;;;16.00;87.40;;;;;;5077387;28;20035;-83
2021/08/02 05:05:32;;;;;;;11.80;7.50;;;16.00;87.30;;;;;;5078010;28;20119;-81
2021/08/02 05:07:57;;;;;;;14.52;8.75;;;15.90;87.20;;;;;;5064139;28;20139;-81
2021/08/02 05:10:23;;;;;;;10.93;6.88;;;16.00;87.20;;;;;;5114501;28;20085;-81
2021/08/02 05:12:52;;;;;;;9.90;7.30;;;16.00;87.00;;;;;;5116678;28;20106;-81
2021/08/02 05:15:18;;;;;;;11.25;7.65;;;15.90;86.90;;;;;;5116145;28;20475;-81
2021/08/02 05:17:44;;;;;;;10.88;6.95;;;16.00;86.90;;;;;;5120126;28;20080;-82
2021/08/02 05:20:10;;;;;;;14.45;8.35;;;15.90;86.70;;;;;;5116242;28;20360;-84
2021/08/02 05:22:36;;;;;;;13.45;8.57;;;15.90;86.70;;;;;;5098124;28;20065;-80
2021/08/02 05:25:02;;;;;;;10.88;8.15;;;16.00;86.80;;;;;;5132859;27;20395;-82
2021/08/02 05:27:28;;;;;;;9.15;6.95;;;16.00;86.80;;;;;;5117688;28;20119;-80
2021/08/02 05:29:53;;;;;;;11.85;7.18;;;16.10;86.50;;;;;;5116138;28;20070;-81
2021/08/02 05:32:19;;;;;;;14.30;8.00;;;16.10;86.30;;;;;;5118620;28;20130;-81
2021/08/02 05:34:46;;;;;;;13.80;7.65;;;16.20;86.10;;;;;;5103404;28;20035;-82
2021/08/02 05:37:13;;;;;;;10.52;7.00;;;16.20;86.00;;;;;;5135215;27;20524;-84
2021/08/02 05:39:40;;;;;;;8.43;6.90;;;16.30;85.80;;;;;;5117068;28;20035;-81
2021/08/02 05:42:07;;;;;;;10.60;8.02;;;16.40;85.60;;;;;;5116383;28;20024;-81
2021/08/02 05:44:32;;;;;;;12.48;7.07;;;16.50;85.30;;;;;;5116052;28;20134;-81
2021/08/02 05:46:59;;;;;;;11.10;7.10;;;16.50;84.90;;;;;;5117001;28;20118;-81
2021/08/02 05:49:25;;;;;;;10.35;7.68;;;16.60;84.60;;;;;;5116633;28;20425;-81
2021/08/02 05:51:53;;;;;;;9.68;7.05;;;16.60;84.50;;;;;;5116793;28;20028;-81
2021/08/02 05:54:19;;;;;;;11.70;6.57;;;16.60;84.50;;;;;;5100364;28;20475;-82
2021/08/02 05:56:45;;;;;;;10.52;6.78;;;16.60;84.30;;;;;;5116708;28;20030;-82
2021/08/02 05:59:10;;;;;;;11.93;7.35;;;16.60;84.40;;;;;;5096669;28;20077;-82
2021/08/02 06:01:36;;;;;;;11.20;7.00;;;16.60;84.50;;;;;;5096691;28;20383;-81
2021/08/02 06:04:02;;;;;;;8.18;6.30;;;16.60;84.50;;;;;;5094788;28;20383;-80
2021/08/02 06:06:28;;;;;;;8.07;6.50;;;16.60;84.60;;;;;;5094245;28;20032;-81
2021/08/02 06:08:54;;;;;;;12.02;6.05;;;16.70;84.60;;;;;;5115465;28;20095;-81
2021/08/02 06:11:19;;;;;;;8.00;5.43;;;16.70;84.30;;;;;;5077034;28;20137;-83
2021/08/02 06:13:48;;;;;;;7.50;5.30;;;16.70;84.20;;;;;;5076672;28;20020;-82
2021/08/02 06:16:14;;;;;;;7.95;5.78;;;16.70;84.20;;;;;;5093610;28;20434;-83
2021/08/02 06:18:40;;;;;;;7.30;5.43;;;16.80;84.50;;;;;;5076483;28;20032;-82
2021/08/02 06:21:05;;;;;;;7.70;4.93;;;16.80;84.00;;;;;;5095452;28;20055;-82
2021/08/02 06:23:31;;;;;;;8.27;5.35;;;16.90;83.90;;;;;;5096175;28;20027;-82
2021/08/02 06:25:56;;;;;;;8.10;5.50;;;16.90;83.80;;;;;;5091098;28;20056;-82
2021/08/02 06:28:22;;;;;;;9.88;5.90;;;17.00;83.60;;;;;;5093874;28;20092;-82
2021/08/02 06:30:48;;;;;;;8.50;5.78;;;17.00;83.30;;;;;;5095286;28;20108;-83
2021/08/02 06:33:14;;;;;;;13.30;6.05;;;17.00;83.30;;;;;;5112848;28;20034;-83
2021/08/02 06:35:39;;;;;;;12.00;6.75;;;17.00;83.00;;;;;;5095877;28;20023;-82
2021/08/02 06:38:05;;;;;;;15.88;6.40;;;16.90;83.00;;;;;;5113407;28;20036;-81
2021/08/02 06:40:31;;;;;;;12.10;6.35;;;16.90;83.40;;;;;;5096220;28;20047;-79
2021/08/02 06:42:56;;;;;;;11.32;6.13;;;16.80;83.70;;;;;;5112344;28;20043;-79
2021/08/02 06:45:22;;;;;;;13.38;7.43;;;16.80;84.00;;;;;;5096014;28;20039;-81
2021/08/02 06:47:48;;;;;;;10.68;7.07;;;16.80;84.20;;;;;;5072814;28;20122;-81
2021/08/02 06:50:13;;;;;;;10.75;7.05;;;16.90;84.40;;;;;;5096023;28;20114;-80
2021/08/02 06:52:39;;;;;;;14.00;7.90;;;16.90;84.50;;;;;;5111896;28;20027;-80
2021/08/02 06:55:06;;;;;;;11.50;6.85;;;16.90;84.30;;;;;;5097939;28;20035;-79
2021/08/02 06:57:31;;;;;;;9.18;6.78;;;16.90;84.30;;;;;;5093210;28;20047;-81
2021/08/02 06:59:57;;;;;;;13.88;7.75;;;17.00;84.30;;;;;;5059259;28;20464;-79
2021/08/02 07:02:24;;;;;;;11.88;7.80;;;16.90;84.30;;;;;;5109434;28;20031;-84
2021/08/02 07:04:49;;;;;;;9.30;7.00;;;17.00;84.60;;;;;;5092102;28;20090;-80
2021/08/02 07:07:15;;;;;;;13.02;8.73;;;17.00;84.60;;;;;;5092299;28;20024;-80
2021/08/02 07:09:41;;;;;;;11.68;6.43;;;17.00;84.50;;;;;;5091372;28;20604;-81
2021/08/02 07:12:07;;;;;;;11.88;9.00;;;17.10;84.50;;;;;;5092462;28;20036;-81
2021/08/02 07:14:33;;;;;;;12.07;8.45;;;17.10;84.40;;;;;;5108865;28;20057;-81
2021/08/02 07:16:58;;;;;;;16.02;11.43;;;17.20;84.30;;;;;;5081354;28;20123;-81
2021/08/02 07:19:24;;;;;;;10.70;7.00;;;17.20;84.10;;;;;;5077436;28;20364;-85
2021/08/02 07:21:50;;;;;;;17.30;13.02;;;17.30;84.00;;;;;;5078122;28;20496;-81
2021/08/02 07:24:15;;;;;;;14.98;10.52;;;17.30;83.90;;;;;;5078750;28;20383;-79
2021/08/02 07:26:41;;;;;;;19.90;16.20;;;17.30;83.70;;;;;;5112143;28;20065;-80
2021/08/02 07:29:06;;;;;;;23.63;19.48;;;17.40;83.70;;;;;;5113969;28;20474;-80
2021/08/02 07:31:33;;;;;;;23.77;17.27;;;17.60;83.50;;;;;;5112029;28;20039;-81
2021/08/02 07:33:58;;;;;;;18.65;14.95;;;17.70;82.90;;;;;;5112340;28;20031;-81
2021/08/02 07:36:24;;;;;;;18.48;14.68;;;17.80;82.20;;;;;;5113131;28;20384;-81
2021/08/02 07:38:50;;;;;;;22.42;16.58;;;17.90;81.80;;;;;;5114300;28;20028;-82
2021/08/02 07:41:16;;;;;;;14.32;9.77;;;18.10;81.60;;;;;;5093900;28;20061;-79
2021/08/02 07:43:44;;;;;;;7.47;5.10;;;18.20;80.20;;;;;;5111518;28;20105;-79
2021/08/02 07:46:11;;;;;;;13.82;9.27;;;18.10;79.40;;;;;;5124907;28;20051;-81
2021/08/02 07:48:38;;;;;;;10.50;7.90;;;18.00;79.80;;;;;;5133386;28;20031;-83
2021/08/02 07:51:05;;;;;;;6.38;4.95;;;18.00;80.10;;;;;;5137284;28;20020;-81
2021/08/02 07:53:30;;;;;;;5.75;4.25;;;18.10;79.90;;;;;;5119449;28;20053;-90
2021/08/02 07:55:56;;;;;;;7.82;4.68;;;18.10;79.40;;;;;;5137284;28;20039;-81
2021/08/02 07:58:22;;;;;;;12.60;5.10;;;18.10;79.30;;;;;;5135497;28;20011;-80
2021/08/02 08:00:48;;;;;;;6.38;3.50;;;18.20;79.50;;;;;;5134573;28;20028;-82
2021/08/02 08:03:13;;;;;;;7.40;3.63;;;18.20;79.40;;;;;;5136773;28;20027;-78
2021/08/02 08:05:40;;;;;;;7.93;3.35;;;18.40;79.10;;;;;;5133955;28;20024;-81
2021/08/02 08:08:05;;;;;;;6.05;3.50;;;18.70;78.30;;;;;;5115105;28;20046;-78
2021/08/02 08:10:31;;;;;;;4.75;2.60;;;19.00;77.60;;;;;;5092654;28;20032;-82
2021/08/02 08:12:57;;;;;;;5.28;3.28;;;19.30;76.80;;;;;;5095353;28;20024;-77
2021/08/02 08:15:24;;;;;;;7.30;3.80;;;19.60;76.10;;;;;;5093019;28;20028;-76
2021/08/02 08:17:50;;;;;;;6.95;2.90;;;19.90;75.60;;;;;;5100014;28;20016;-76
2021/08/02 08:20:22;;;;;;;6.13;2.83;;;20.20;74.90;;;;;;5107104;28;20020;-76
2021/08/02 08:22:49;;;;;;;4.53;1.70;;;20.40;73.20;;;;;;5113959;28;20043;-77
2021/08/02 08:25:16;;;;;;;4.90;2.42;;;20.60;73.20;;;;;;5093248;28;20111;-78
2021/08/02 08:27:42;;;;;;;4.07;1.70;;;21.00;72.80;;;;;;5091837;28;20097;-81
2021/08/02 08:30:10;;;;;;;3.75;1.45;;;21.30;71.50;;;;;;5095410;28;20027;-81
2021/08/02 08:32:36;;;;;;;3.72;1.42;;;21.30;69.60;;;;;;5113401;28;20028;-83
2021/08/02 08:35:03;;;;;;;4.68;1.42;;;21.40;70.70;;;;;;5111617;28;20087;-81
2021/08/02 08:37:28;;;;;;;2.03;1.10;;;21.70;70.20;;;;;;5095392;28;20035;-82
2021/08/02 08:39:54;;;;;;;5.63;1.80;;;21.80;69.60;;;;;;5113311;28;20024;-83
2021/08/02 08:42:20;;;;;;;3.33;1.30;;;21.80;69.60;;;;;;5078433;28;20161;-83
2021/08/02 08:44:46;;;;;;;5.30;1.23;;;21.60;67.10;;;;;;5079686;28;20044;-83
2021/08/02 08:47:12;;;;;;;3.92;1.30;;;21.40;68.40;;;;;;5116263;28;20024;-83
2021/08/02 08:49:38;;;;;;;2.83;1.20;;;21.20;67.00;;;;;;5116725;28;20028;-84
2021/08/02 08:52:05;;;;;;;4.15;1.20;;;21.00;68.80;;;;;;5098264;28;20027;-83
2021/08/02 08:54:31;;;;;;;3.47;1.70;;;21.10;68.50;;;;;;5114684;28;20028;-84
2021/08/02 08:56:57;;;;;;;5.65;1.50;;;21.40;68.20;;;;;;5114718;28;20059;-82
2021/08/02 08:59:23;;;;;;;5.07;1.52;;;21.40;65.90;;;;;;5115344;28;20047;-83
2021/08/02 09:02:00;;;;;;;3.35;1.80;;;21.40;67.00;;;;;;5114385;28;20059;-83
2021/08/02 09:04:30;;;;;;;5.60;1.70;;;22.00;66.40;;;;;;5115427;28;20120;-82
2021/08/02 09:06:59;;;;;;;5.40;1.58;;;23.00;66.30;;;;;;5114434;28;20016;-83
2021/08/02 09:09:32;;;;;;;2.30;1.17;;;23.90;62.40;;;;;;5114864;28;20028;-83
2021/08/02 09:12:14;;;;;;;4.50;1.65;;;24.30;60.30;;;;;;5114920;28;20055;-83
2021/08/02 09:14:52;;;;;;;3.13;1.48;;;24.60;60.30;;;;;;5114330;28;20043;-83
2021/08/02 09:17:34;;;;;;;3.47;1.77;;;24.60;60.30;;;;;;5115816;28;20052;-82
2021/08/02 09:20:03;;;;;;;4.17;1.60;;;24.20;60.70;;;;;;5115836;28;20023;-82
2021/08/02 09:22:36;;;;;;;6.88;1.70;;;23.70;60.90;;;;;;5114995;28;20383;-82
2021/08/02 09:25:15;;;;;;;3.28;1.20;;;23.20;62.00;;;;;;5114791;28;20595;-82
2021/08/02 09:27:42;;;;;;;2.40;0.80;;;22.70;62.40;;;;;;5114461;28;20020;-84
2021/08/02 09:30:26;;;;;;;3.50;0.90;;;22.30;63.00;;;;;;5115657;28;20027;-81
2021/08/02 09:33:09;;;;;;;2.80;1.15;;;21.90;63.60;;;;;;5115715;28;20123;-82
2021/08/02 09:35:39;;;;;;;2.58;0.70;;;21.40;64.50;;;;;;5115990;28;20043;-80
2021/08/02 09:38:14;;;;;;;3.10;1.60;;;21.20;64.70;;;;;;5114458;28;20070;-81
2021/08/02 09:40:55;;;;;;;7.90;1.55;;;21.10;66.50;;;;;;5117060;28;20039;-80
2021/08/02 09:43:23;;;;;;;5.32;0.90;;;21.40;66.40;;;;;;5124209;28;20103;-80
2021/08/02 09:45:58;;;;;;;3.40;1.00;;;21.70;64.80;;;;;;5132312;28;20075;-81
2021/08/02 09:48:38;;;;;;;2.55;0.73;;;22.00;63.50;;;;;;5135670;28;20037;-81
2021/08/02 09:51:14;;;;;;;3.05;0.70;;;22.60;63.80;;;;;;5135011;28;20058;-81
2021/08/02 09:53:45;;;;;;;3.00;0.77;;;23.00;61.30;;;;;;5137396;28;20052;-80
2021/08/02 09:56:16;;;;;;;2.45;0.90;;;23.10;59.90;;;;;;5138469;28;20023;-81
2021/08/02 09:58:43;;;;;;;2.45;0.57;;;23.30;61.90;;;;;;5138949;28;20124;-87
2021/08/02 10:01:12;;;;;;;2.78;0.80;;;23.70;61.20;;;;;;5133914;28;20074;-80
2021/08/02 10:03:39;;;;;;;2.55;0.60;;;23.80;57.30;;;;;;5133760;28;20031;-80
2021/08/02 10:06:05;;;;;;;2.95;0.60;;;23.30;58.40;;;;;;5133639;28;20034;-81
2021/08/02 10:08:34;;;;;;;2.97;0.70;;;23.20;60.90;;;;;;5135146;28;20091;-82
2021/08/02 10:10:59;;;;;;;1.67;0.60;;;23.20;59.20;;;;;;5126859;28;20012;-82
2021/08/02 10:13:28;;;;;;;4.10;0.70;;;23.30;60.60;;;;;;5128745;28;20093;-80
2021/08/02 10:15:56;;;;;;;2.72;0.60;;;23.40;58.50;;;;;;5124444;28;20027;-80
2021/08/02 10:18:24;;;;;;;2.40;0.60;;;23.40;58.60;;;;;;5125025;28;20104;-81
2021/08/02 10:21:01;;;;;;;2.85;0.70;;;23.20;57.10;;;;;;5105966;28;20020;-81
2021/08/02 10:23:27;;;;;;;2.63;0.70;;;23.00;59.00;;;;;;5106322;28;20107;-81
2021/08/02 10:25:52;;;;;;;4.70;0.82;;;22.80;58.60;;;;;;5095848;28;20056;-80
2021/08/02 10:28:20;;;;;;;1.58;0.50;;;22.70;59.60;;;;;;5094355;28;20032;-79
2021/08/02 10:30:48;;;;;;;3.80;0.60;;;22.60;60.00;;;;;;5094516;28;20089;-79
2021/08/02 10:33:14;;;;;;;2.03;0.50;;;22.80;60.90;;;;;;5093856;28;20443;-79
2021/08/02 10:35:41;;;;;;;3.33;0.60;;;23.00;60.60;;;;;;5111025;28;20052;-81
2021/08/02 10:38:14;;;;;;;1.52;0.50;;;23.40;60.50;;;;;;5095470;28;20095;-79
2021/08/02 10:40:43;;;;;;;3.20;0.70;;;23.90;60.20;;;;;;5111024;28;20016;-81
2021/08/02 10:43:09;;;;;;;1.38;0.43;;;24.40;58.90;;;;;;5093706;28;20087;-82
2021/08/02 10:45:34;;;;;;;2.72;0.98;;;24.60;58.30;;;;;;5111005;28;20056;-81
2021/08/02 10:48:01;;;;;;;3.75;0.73;;;24.70;57.50;;;;;;5093924;28;20028;-81
2021/08/02 10:50:30;;;;;;;3.05;1.05;;;24.90;57.50;;;;;;5111609;28;20026;-79
2021/08/02 10:52:57;;;;;;;4.40;1.30;;;24.80;55.00;;;;;;5113200;28;20390;-80
2021/08/02 10:55:29;;;;;;;3.55;1.00;;;24.20;54.70;;;;;;5113705;28;20020;-80
2021/08/02 10:57:59;;;;;;;3.13;0.73;;;23.50;57.10;;;;;;5097657;28;20035;-82
2021/08/02 11:00:25;;;;;;;2.22;0.80;;;23.40;59.20;;;;;;5096549;28;20035;-80
2021/08/02 11:02:56;;;;;;;2.30;0.75;;;23.60;59.70;;;;;;5096226;28;20061;-79
2021/08/02 11:05:28;;;;;;;2.45;0.70;;;23.90;57.90;;;;;;5096724;28;20126;-81
2021/08/02 11:07:54;;;;;;;3.60;1.00;;;24.10;58.40;;;;;;5113068;28;20039;-81
2021/08/02 11:10:19;;;;;;;3.25;1.05;;;24.30;57.20;;;;;;5113021;28;20945;-80
2021/08/02 11:12:47;;;;;;;1.58;0.73;;;24.50;55.90;;;;;;5096223;28;20376;-79
2021/08/02 11:15:12;;;;;;;3.13;0.80;;;24.50;56.30;;;;;;5112591;28;20020;-80
2021/08/02 11:17:48;;;;;;;2.83;0.82;;;24.60;57.20;;;;;;5129985;27;20035;-78
2021/08/02 11:20:14;;;;;;;2.75;0.88;;;24.80;56.30;;;;;;5112208;28;20867;-77
2021/08/02 11:22:57;;;;;;;3.83;1.00;;;24.80;56.60;;;;;;5129993;27;20041;-77
2021/08/02 11:25:37;;;;;;;3.45;1.08;;;24.70;54.90;;;;;;5110901;28;20038;-75
2021/08/02 11:28:03;;;;;;;2.40;0.80;;;24.40;55.90;;;;;;5109078;28;20379;-75
2021/08/02 11:30:30;;;;;;;2.92;1.00;;;24.20;57.10;;;;;;5107784;28;20020;-75
2021/08/02 11:32:56;;;;;;;4.35;1.00;;;24.20;57.20;;;;;;5112133;28;20386;-75
2021/08/02 11:35:32;;;;;;;1.70;0.80;;;24.30;57.60;;;;;;5112758;28;20043;-75
2021/08/02 11:37:58;;;;;;;3.28;0.70;;;24.10;56.10;;;;;;5114350;28;20055;-76
2021/08/02 11:40:27;;;;;;;3.03;0.93;;;23.80;57.90;;;;;;5105680;28;20059;-76
2021/08/02 11:43:01;;;;;;;2.55;1.20;;;23.90;59.10;;;;;;5101496;28;20044;-78
2021/08/02 11:45:28;;;;;;;3.13;1.00;;;24.00;57.50;;;;;;5101341;28;20028;-77
2021/08/02 11:47:54;;;;;;;2.25;1.23;;;23.70;57.60;;;;;;5093083;28;20032;-76
2021/08/02 11:50:21;;;;;;;4.20;1.33;;;23.80;58.50;;;;;;5093830;28;20031;-76
2021/08/02 11:52:59;;;;;;;3.00;1.70;;;23.90;57.80;;;;;;5115477;28;20031;-76
2021/08/02 11:55:24;;;;;;;2.80;1.33;;;23.50;56.40;;;;;;5097108;28;20080;-76
2021/08/02 11:57:58;;;;;;;3.60;1.90;;;23.30;58.50;;;;;;5096640;28;20682;-76
2021/08/02 12:00:24;;;;;;;2.75;1.52;;;23.20;58.30;;;;;;5123618;28;20062;-76
2021/08/02 12:02:50;;;;;;;2.65;1.80;;;23.30;59.70;;;;;;5117099;28;20036;-76
2021/08/02 12:05:25;;;;;;;3.42;1.50;;;23.70;58.20;;;;;;5131969;28;20038;-76
2021/08/02 12:07:51;;;;;;;3.97;1.80;;;23.90;57.50;;;;;;5096864;28;20478;-77
2021/08/02 12:10:19;;;;;;;4.28;2.17;;;24.10;57.50;;;;;;5091506;28;20020;-77
2021/08/02 12:13:06;;;;;;;2.10;1.38;;;24.00;56.20;;;;;;5108345;28;20449;-77
2021/08/02 12:15:33;;;;;;;3.75;1.70;;;24.00;57.80;;;;;;5111934;28;20031;-77
2021/08/02 12:18:00;;;;;;;2.92;1.50;;;24.20;57.00;;;;;;5106856;28;20035;-77
2021/08/02 12:20:34;;;;;;;2.15;1.38;;;24.50;56.30;;;;;;5132785;27;20467;-77
2021/08/02 12:23:04;;;;;;;2.35;1.60;;;24.70;55.60;;;;;;5117080;28;20471;-78
2021/08/02 12:25:36;;;;;;;3.85;1.20;;;24.90;55.60;;;;;;5115156;27;20039;-78
2021/08/02 12:28:02;;;;;;;3.47;1.53;;;25.20;55.00;;;;;;5116161;28;20379;-77
2021/08/02 12:30:27;;;;;;;2.22;1.50;;;25.40;54.50;;;;;;5099353;28;20039;-76
2021/08/02 12:32:53;;;;;;;2.67;1.30;;;25.60;53.60;;;;;;5112518;28;20039;-77
2021/08/02 12:35:19;;;;;;;3.05;1.23;;;25.40;53.50;;;;;;5112668;28;20020;-78
2021/08/02 12:37:46;;;;;;;3.05;1.00;;;25.70;54.20;;;;;;5115111;28;20098;-77
2021/08/02 12:40:16;;;;;;;3.47;1.77;;;25.80;53.10;;;;;;5103118;28;20024;-77
2021/08/02 12:42:47;;;;;;;3.47;1.60;;;25.90;52.10;;;;;;5095218;28;20052;-77
2021/08/02 12:45:16;;;;;;;2.83;1.30;;;25.50;52.60;;;;;;5078080;28;20035;-79
2021/08/02 12:47:42;;;;;;;2.97;1.63;;;25.50;53.70;;;;;;5078692;28;20118;-78
2021/08/02 12:50:10;;;;;;;2.83;0.90;;;25.30;53.10;;;;;;5094655;28;20519;-83